createdAt,value
2022-10-05T00:01:24.629Z,13.55
2022-10-05T00:05:30.111Z,13.47
2022-10-05T00:09:33.888Z,13.45
2022-10-05T00:13:33.903Z,13.38
2022-10-05T00:17:34.841Z,13.13
2022-10-05T00:21:35.748Z,13.34
2022-10-05T00:25:35.662Z,13.21
2022-10-05T00:29:37.016Z,13.18
2022-10-05T00:33:38.895Z,13.02
2022-10-05T00:37:39.958Z,13.18
2022-10-05T00:41:57.429Z,13.08
2022-10-05T00:46:02.283Z,13.24
2022-10-05T00:50:44.078Z,12.83
2022-10-05T00:54:53.170Z,13.26
2022-10-05T00:59:06.599Z,13.17
2022-10-05T01:03:12.805Z,13.20
2022-10-05T01:07:23.323Z,12.96
2022-10-05T01:11:32.043Z,13.10
2022-10-05T01:15:37.304Z,13.01
2022-10-05T01:20:00.496Z,12.90
2022-10-05T01:24:19.939Z,12.95
2022-10-05T01:28:26.943Z,12.77
2022-10-05T01:32:35.501Z,12.74
2022-10-05T01:36:42.736Z,12.81
2022-10-05T01:40:53.219Z,12.58
2022-10-05T01:45:07.005Z,12.64
2022-10-05T01:49:20.190Z,12.55
2022-10-05T01:53:29.619Z,12.58
2022-10-05T01:57:42.851Z,12.34
2022-10-05T02:01:54.198Z,12.54
2022-10-05T02:05:59.217Z,12.50
2022-10-05T02:10:02.864Z,12.58
2022-10-05T02:14:09.371Z,12.57
2022-10-05T02:18:16.090Z,12.70
2022-10-05T02:22:19.904Z,12.56
2022-10-05T02:26:21.198Z,12.53
2022-10-05T02:30:21.662Z,12.50
2022-10-05T02:34:25.944Z,12.48
2022-10-05T02:38:34.927Z,12.49
2022-10-05T02:42:44.184Z,12.28
2022-10-05T02:46:53.185Z,12.42
2022-10-05T02:51:06.927Z,12.24
2022-10-05T02:55:17.845Z,12.34
2022-10-05T02:59:28.496Z,12.15
2022-10-05T03:03:34.144Z,12.04
2022-10-05T03:07:46.401Z,12.17
2022-10-05T03:11:52.948Z,12.20
2022-10-05T03:16:19.296Z,12.36
2022-10-05T03:20:30.555Z,12.09
2022-10-05T03:24:47.853Z,12.13
2022-10-05T03:28:58.311Z,12.38
2022-10-05T03:33:08.488Z,12.31
2022-10-05T03:37:16.780Z,12.29
2022-10-05T03:41:27.396Z,12.00
2022-10-05T03:45:32.693Z,11.96
2022-10-05T03:49:46.909Z,12.28
2022-10-05T03:53:55.102Z,12.03
2022-10-05T03:58:02.186Z,12.34
2022-10-05T04:02:04.811Z,11.99
2022-10-05T04:06:12.379Z,12.44
2022-10-05T04:10:19.820Z,12.21
2022-10-05T04:14:29.554Z,12.48
2022-10-05T04:18:34.260Z,12.37
2022-10-05T04:22:40.632Z,12.36
2022-10-05T04:26:44.395Z,12.30
2022-10-05T04:30:50.826Z,12.37
2022-10-05T04:35:16.128Z,12.38
2022-10-05T04:39:24.350Z,12.01
2022-10-05T04:43:36.964Z,12.27
2022-10-05T04:48:26.112Z,12.14
2022-10-05T04:52:32.852Z,11.51
2022-10-05T04:56:38.495Z,11.53
2022-10-05T05:00:55.231Z,11.54
2022-10-05T05:05:25.630Z,11.62
2022-10-05T05:09:59.406Z,11.68
2022-10-05T05:14:34.115Z,11.74
2022-10-05T05:18:55.306Z,11.55
2022-10-05T05:23:07.863Z,11.50
2022-10-05T05:27:29.953Z,11.28
2022-10-05T05:31:40.162Z,11.53
2022-10-05T05:35:53.028Z,11.50
2022-10-05T05:40:04.629Z,11.80
2022-10-05T05:44:16.037Z,11.87
2022-10-05T05:48:21.806Z,12.38
2022-10-05T05:52:26.367Z,12.76
2022-10-05T05:56:36.154Z,12.92
2022-10-05T06:00:43.107Z,13.40
2022-10-05T06:04:48.245Z,13.74
2022-10-05T06:08:51.796Z,13.78
2022-10-05T06:13:01.605Z,13.67
2022-10-05T06:17:03.786Z,13.78
2022-10-05T06:21:09.034Z,13.92
2022-10-05T06:25:25.079Z,14.41
2022-10-05T06:29:36.681Z,15.13
2022-10-05T06:33:51.078Z,15.91
2022-10-05T06:38:06.577Z,16.30
2022-10-05T06:42:30.642Z,16.27
2022-10-05T06:46:38.257Z,15.83
2022-10-05T06:50:45.372Z,15.80
2022-10-05T06:54:59.956Z,16.07
2022-10-05T06:59:07.762Z,16.31
2022-10-05T07:03:22.668Z,16.59
2022-10-05T07:07:26.656Z,16.79
2022-10-05T07:11:41.562Z,16.73
2022-10-05T07:15:52.327Z,16.82
2022-10-05T07:20:03.501Z,17.40
2022-10-05T07:24:14.887Z,17.00
2022-10-05T07:28:27.739Z,16.73
2022-10-05T07:32:37.093Z,16.60
2022-10-05T07:37:02.898Z,16.67
2022-10-05T07:41:08.073Z,16.89
2022-10-05T07:45:18.089Z,16.97
2022-10-05T07:49:27.747Z,17.34
2022-10-05T07:53:31.725Z,17.57
2022-10-05T07:57:41.323Z,17.07
2022-10-05T08:01:47.256Z,16.90
2022-10-05T08:05:48.891Z,17.20
2022-10-05T08:09:56.742Z,16.95
2022-10-05T08:14:02.405Z,16.63
2022-10-05T08:18:04.702Z,16.39
2022-10-05T08:22:11.284Z,16.63
2022-10-05T08:26:25.145Z,16.61
2022-10-05T08:30:25.780Z,16.27
2022-10-05T08:34:31.502Z,17.12
2022-10-05T08:38:34.794Z,17.13
2022-10-05T08:43:13.288Z,17.35
2022-10-05T08:47:34.816Z,17.56
2022-10-05T08:52:07.930Z,17.58
2022-10-05T08:56:31.518Z,18.12
2022-10-05T09:00:41.816Z,18.19
2022-10-05T09:05:01.556Z,18.59
2022-10-05T09:09:20.339Z,18.97
2022-10-05T09:13:46.274Z,19.24
2022-10-05T09:18:28.397Z,19.15
2022-10-05T09:23:07.105Z,19.38
2022-10-05T09:27:14.885Z,19.15
2022-10-05T09:31:37.789Z,19.19
2022-10-05T09:36:05.524Z,19.33
2022-10-05T09:40:49.525Z,19.16
2022-10-05T09:45:22.451Z,19.20
2022-10-05T09:49:49.503Z,19.73
2022-10-05T09:54:28.499Z,19.71
2022-10-05T09:58:52.454Z,19.41
2022-10-05T10:03:48.457Z,19.64
2022-10-05T10:08:13.828Z,19.83
2022-10-05T10:12:27.923Z,19.62
2022-10-05T10:17:11.201Z,19.82
2022-10-05T10:21:58.544Z,19.86
2022-10-05T10:26:37.756Z,20.13
2022-10-05T10:31:02.031Z,20.18
2022-10-05T10:35:18.475Z,20.18
2022-10-05T10:39:28.202Z,20.49
2022-10-05T10:43:49.345Z,20.32
2022-10-05T10:47:54.614Z,20.51
2022-10-05T10:52:28.349Z,20.49
2022-10-05T10:56:55.204Z,20.22
2022-10-05T11:01:04.034Z,20.05
2022-10-05T11:05:28.820Z,20.08
2022-10-05T11:09:52.367Z,20.19
2022-10-05T11:14:20.722Z,20.33
2022-10-05T11:18:26.358Z,20.32
2022-10-05T11:22:51.863Z,20.55
2022-10-05T11:27:26.100Z,20.51
2022-10-05T11:31:40.037Z,20.56
2022-10-05T11:36:00.584Z,20.56
2022-10-05T11:40:42.753Z,20.36
2022-10-05T11:45:24.579Z,20.78
2022-10-05T11:49:32.959Z,20.93
2022-10-05T11:53:41.119Z,20.79
2022-10-05T11:57:49.907Z,20.96
2022-10-05T12:01:58.357Z,21.11
2022-10-05T12:06:10.716Z,21.31
2022-10-05T12:10:30.911Z,21.15
2022-10-05T12:14:43.103Z,21.62
2022-10-05T12:19:02.267Z,21.81
2022-10-05T12:23:07.287Z,21.56
2022-10-05T12:27:13.695Z,21.17
2022-10-05T12:31:23.549Z,21.87
2022-10-05T12:35:47.407Z,21.56
2022-10-05T12:39:55.331Z,22.02
2022-10-05T12:44:14.673Z,21.77
2022-10-05T12:48:33.889Z,22.21
2022-10-05T12:52:55.702Z,22.46
2022-10-05T12:56:59.704Z,22.43
2022-10-05T13:01:11.832Z,22.35
2022-10-05T13:05:23.625Z,22.10
2022-10-05T13:09:34.735Z,22.24
2022-10-05T13:13:47.118Z,22.42
2022-10-05T13:17:55.965Z,22.00
2022-10-05T13:22:12.175Z,21.89
2022-10-05T13:26:19.576Z,21.97
2022-10-05T13:30:21.533Z,22.04
2022-10-05T13:34:30.094Z,22.32
2022-10-05T13:38:43.579Z,22.52
2022-10-05T13:42:53.455Z,22.47
2022-10-05T13:47:00.503Z,22.53
2022-10-05T13:51:10.371Z,22.68
2022-10-05T13:55:20.176Z,22.48
2022-10-05T13:59:31.415Z,21.80
2022-10-05T14:03:34.749Z,21.09
2022-10-05T14:07:39.260Z,20.97
2022-10-05T14:11:39.907Z,21.01
2022-10-05T14:15:42.457Z,21.26
2022-10-05T14:19:46.957Z,21.43
2022-10-05T14:23:47.160Z,21.83
2022-10-05T14:27:59.692Z,21.87
2022-10-05T14:32:13.743Z,21.78
2022-10-05T14:36:21.272Z,21.87
2022-10-05T14:40:27.126Z,21.38
2022-10-05T14:48:44.526Z,20.82
2022-10-05T14:52:51.774Z,20.45
2022-10-05T14:57:02.161Z,20.49
2022-10-05T15:01:13.362Z,20.40
2022-10-05T15:05:20.673Z,20.56
2022-10-05T15:09:48.114Z,20.13
2022-10-05T15:13:49.241Z,20.30
2022-10-05T15:17:55.975Z,20.36
2022-10-05T15:22:15.319Z,20.35
2022-10-05T15:26:31.902Z,20.59
2022-10-05T15:30:35.724Z,20.44
2022-10-05T15:34:40.974Z,20.39
2022-10-05T15:39:00.376Z,20.44
2022-10-05T15:43:08.499Z,20.36
2022-10-05T15:47:27.865Z,20.54
2022-10-05T15:51:38.394Z,20.60
2022-10-05T15:55:52.285Z,20.77
2022-10-05T16:00:57.884Z,20.93
2022-10-05T16:04:55.726Z,21.05
2022-10-05T16:09:09.229Z,20.73
2022-10-05T16:13:25.039Z,20.38
2022-10-05T16:17:47.763Z,20.01
2022-10-05T16:21:58.923Z,19.74
2022-10-05T16:26:23.191Z,19.53
2022-10-05T16:30:26.527Z,19.47
2022-10-05T16:34:44.890Z,19.20
2022-10-05T16:38:55.202Z,18.85
2022-10-05T16:43:12.834Z,18.74
2022-10-05T16:47:36.831Z,18.13
2022-10-05T16:51:44.822Z,18.01
2022-10-05T16:55:48.203Z,17.80
2022-10-05T17:00:23.734Z,17.76
2022-10-05T17:04:46.079Z,17.54
2022-10-05T17:09:12.557Z,17.75
2022-10-05T17:13:39.818Z,17.58
2022-10-05T17:17:53.467Z,17.18
2022-10-05T17:22:02.871Z,16.91
2022-10-05T17:26:30.393Z,16.80
2022-10-05T17:30:53.628Z,16.72
2022-10-05T17:35:18.647Z,16.72
2022-10-05T17:39:23.149Z,16.54
2022-10-05T17:43:28.871Z,16.05
2022-10-05T17:48:00.843Z,16.26
2022-10-05T17:52:39.231Z,16.27
2022-10-05T19:21:56.465Z,14.30
2022-10-05T19:26:19.085Z,14.16
2022-10-05T19:30:27.441Z,14.12
2022-10-05T19:34:51.073Z,14.45
2022-10-05T19:39:12.824Z,14.54
2022-10-05T19:43:57.634Z,14.54
2022-10-05T19:48:18.615Z,14.67
2022-10-05T19:52:46.343Z,14.89
2022-10-05T19:57:02.788Z,15.28
2022-10-05T20:01:06.713Z,15.32
2022-10-05T20:05:10.025Z,15.55
2022-10-05T20:09:26.484Z,15.60
2022-10-05T20:13:33.629Z,15.68
2022-10-05T20:17:49.520Z,15.62
2022-10-05T20:21:51.718Z,15.61
2022-10-05T20:26:05.748Z,15.84
2022-10-05T20:30:10.622Z,15.69
2022-10-05T20:34:12.901Z,15.48
2022-10-05T20:38:17.118Z,15.11
2022-10-05T20:42:24.614Z,15.46
2022-10-05T20:46:31.582Z,15.40
2022-10-05T20:50:33.265Z,15.28
2022-10-05T20:54:37.657Z,15.35
2022-10-05T20:58:44.082Z,15.56
2022-10-05T21:02:49.216Z,15.58
2022-10-05T21:06:53.584Z,15.68
2022-10-05T21:10:55.689Z,15.54
2022-10-05T21:14:56.673Z,15.41
2022-10-05T21:18:59.978Z,14.84
2022-10-05T21:23:00.711Z,14.96
2022-10-05T21:27:01.675Z,14.96
2022-10-05T21:31:38.931Z,14.78
2022-10-05T21:35:41.115Z,14.51
2022-10-05T21:39:41.813Z,14.21
2022-10-05T21:43:53.355Z,14.04
2022-10-05T21:47:55.045Z,13.85
2022-10-05T21:51:57.760Z,14.34
2022-10-05T21:56:02.990Z,14.46
2022-10-05T22:00:07.847Z,14.44
2022-10-05T22:04:10.638Z,14.74
2022-10-05T22:08:28.131Z,14.73
2022-10-05T22:12:29.403Z,14.54
2022-10-05T22:16:31.409Z,14.45
2022-10-05T22:20:34.854Z,14.18
2022-10-05T22:24:37.701Z,13.98
2022-10-05T22:28:39.501Z,13.82
2022-10-05T22:32:40.835Z,13.62
2022-10-05T22:36:45.988Z,13.57
2022-10-05T22:40:49.694Z,13.45
2022-10-05T22:45:01.816Z,13.68
2022-10-05T22:49:15.860Z,13.74
2022-10-05T22:53:24.869Z,13.61
2022-10-05T22:57:41.613Z,13.85
2022-10-05T23:01:50.697Z,13.78
2022-10-05T23:06:21.192Z,13.89
2022-10-05T23:10:30.827Z,13.37
2022-10-05T23:14:42.321Z,12.97
2022-10-05T23:18:58.247Z,13.00
2022-10-05T23:22:59.650Z,12.54
2022-10-05T23:27:08.846Z,12.35
2022-10-05T23:31:17.367Z,12.18
2022-10-05T23:35:26.212Z,11.66
2022-10-05T23:39:36.821Z,12.09
2022-10-05T23:43:41.330Z,12.36
2022-10-05T23:47:54.883Z,12.38
2022-10-05T23:52:00.548Z,12.04
2022-10-05T23:56:04.042Z,11.77
